createdAt,value
2018-05-18T00:02:00.217Z,14.48
2018-05-18T00:04:27.623Z,14.47
2018-05-18T00:06:55.049Z,14.47
2018-05-18T00:09:22.457Z,14.50
2018-05-18T00:11:49.883Z,14.51
2018-05-18T00:14:17.293Z,14.47
2018-05-18T00:16:44.717Z,14.40
2018-05-18T00:19:12.124Z,14.38
2018-05-18T00:21:39.549Z,14.32
2018-05-18T00:24:06.981Z,14.34
2018-05-18T00:26:34.414Z,14.43
2018-05-18T00:29:01.820Z,14.40
2018-05-18T00:31:29.243Z,14.34
2018-05-18T00:33:56.653Z,14.34
2018-05-18T00:36:24.079Z,14.33
2018-05-18T00:38:51.489Z,14.26
2018-05-18T00:41:18.915Z,14.26
2018-05-18T00:43:46.320Z,14.23
2018-05-18T00:46:13.736Z,14.26
2018-05-18T00:48:41.150Z,14.29
2018-05-18T00:51:08.577Z,14.30
2018-05-18T00:53:35.990Z,14.34
2018-05-18T00:56:03.420Z,14.34
2018-05-18T00:58:30.832Z,14.39
2018-05-18T01:00:58.237Z,14.32
2018-05-18T01:03:25.687Z,14.35
2018-05-18T01:05:53.092Z,14.45
2018-05-18T01:08:20.512Z,14.41
2018-05-18T01:10:47.933Z,14.30
2018-05-18T01:13:15.361Z,14.21
2018-05-18T01:15:42.785Z,14.18
2018-05-18T01:18:10.217Z,14.15
2018-05-18T01:20:37.629Z,14.19
2018-05-18T01:23:05.049Z,14.24
2018-05-18T01:25:32.471Z,14.27
2018-05-18T01:27:59.893Z,14.25
2018-05-18T01:30:27.303Z,14.30
2018-05-18T01:32:54.724Z,14.35
2018-05-18T01:35:22.137Z,14.34
2018-05-18T01:37:49.548Z,14.38
2018-05-18T01:40:16.957Z,14.36
2018-05-18T01:42:44.372Z,14.35
2018-05-18T01:45:11.789Z,14.37
2018-05-18T01:47:39.210Z,14.32
2018-05-18T01:50:06.624Z,14.29
2018-05-18T01:52:34.040Z,14.27
2018-05-18T01:55:01.453Z,14.27
2018-05-18T01:57:28.877Z,14.29
2018-05-18T01:59:56.292Z,14.28
2018-05-18T02:02:23.713Z,14.29
2018-05-18T02:04:51.131Z,14.31
2018-05-18T02:07:18.560Z,14.30
2018-05-18T02:09:45.969Z,14.30
2018-05-18T02:12:13.384Z,14.29
2018-05-18T02:14:40.796Z,14.29
2018-05-18T02:17:08.212Z,14.28
2018-05-18T02:19:35.628Z,14.30
2018-05-18T02:22:03.044Z,14.33
2018-05-18T02:24:30.463Z,14.41
2018-05-18T02:26:57.889Z,14.49
2018-05-18T02:29:25.298Z,14.50
2018-05-18T02:31:52.725Z,14.47
2018-05-18T02:34:20.136Z,14.47
2018-05-18T02:36:47.550Z,14.46
2018-05-18T02:39:14.958Z,14.39
2018-05-18T02:41:42.370Z,14.21
2018-05-18T02:44:09.797Z,14.15
2018-05-18T02:46:37.209Z,14.10
2018-05-18T02:49:04.631Z,14.08
2018-05-18T02:51:32.045Z,14.03
2018-05-18T02:53:59.457Z,14.05
2018-05-18T02:56:26.868Z,14.08
2018-05-18T02:58:54.331Z,14.09
2018-05-18T03:01:21.741Z,14.09
2018-05-18T03:03:49.157Z,14.06
2018-05-18T03:06:16.573Z,14.01
2018-05-18T03:08:43.991Z,13.96
2018-05-18T03:11:11.397Z,13.92
2018-05-18T03:13:38.823Z,13.93
2018-05-18T03:16:06.238Z,13.97
2018-05-18T03:18:33.654Z,13.97
2018-05-18T03:21:01.086Z,13.96
2018-05-18T03:23:28.486Z,14.00
2018-05-18T03:25:55.887Z,14.05
2018-05-18T03:28:23.313Z,14.06
2018-05-18T03:30:50.748Z,14.05
2018-05-18T03:33:18.173Z,14.08
2018-05-18T03:35:45.588Z,14.11
2018-05-18T03:38:13.004Z,14.12
2018-05-18T03:40:40.422Z,14.18
2018-05-18T03:43:07.833Z,14.23
2018-05-18T03:45:35.244Z,14.19
2018-05-18T03:48:02.656Z,14.15
2018-05-18T03:50:30.073Z,14.16
2018-05-18T03:52:57.488Z,14.18
2018-05-18T03:55:24.898Z,14.20
2018-05-18T03:57:52.317Z,14.18
2018-05-18T04:00:19.728Z,14.13
2018-05-18T04:02:59.135Z,14.12
2018-05-18T04:05:38.287Z,14.10
2018-05-18T04:08:17.427Z,14.04
2018-05-18T04:10:44.844Z,14.05
2018-05-18T04:13:12.264Z,14.07
2018-05-18T04:15:39.679Z,14.01
2018-05-18T04:18:07.100Z,13.98
2018-05-18T04:20:34.508Z,14.02
2018-05-18T04:23:01.942Z,14.10
2018-05-18T04:25:29.349Z,14.15
2018-05-18T04:27:56.778Z,14.19
2018-05-18T04:30:24.239Z,14.18
2018-05-18T04:32:51.601Z,14.18
2018-05-18T04:35:19.029Z,14.13
2018-05-18T04:37:46.456Z,14.12
2018-05-18T04:40:13.888Z,14.09
2018-05-18T04:42:41.300Z,14.13
2018-05-18T04:45:08.732Z,14.22
2018-05-18T04:47:36.140Z,14.28
2018-05-18T04:50:03.560Z,14.34
2018-05-18T04:52:30.989Z,14.40
2018-05-18T04:54:58.413Z,14.41
2018-05-18T04:57:25.836Z,14.47
2018-05-18T04:59:53.265Z,14.47
2018-05-18T05:02:20.668Z,14.45
2018-05-18T05:04:48.102Z,14.50
2018-05-18T05:07:15.517Z,14.52
2018-05-18T05:09:42.934Z,14.52
2018-05-18T05:12:10.348Z,14.53
2018-05-18T05:14:37.773Z,14.51
2018-05-18T05:17:05.220Z,14.46
2018-05-18T05:19:32.649Z,14.43
2018-05-18T05:22:00.068Z,14.45
2018-05-18T05:24:27.481Z,14.47
2018-05-18T05:26:54.888Z,14.49
2018-05-18T05:29:22.304Z,14.50
2018-05-18T05:31:49.716Z,14.51
2018-05-18T05:34:17.129Z,14.53
2018-05-18T05:36:44.592Z,14.54
2018-05-18T05:39:11.960Z,14.45
2018-05-18T05:41:39.372Z,14.34
2018-05-18T05:44:06.796Z,14.28
2018-05-18T05:46:34.208Z,14.28
2018-05-18T05:49:01.637Z,14.29
2018-05-18T05:51:29.057Z,14.32
2018-05-18T05:53:56.501Z,14.36
2018-05-18T05:56:23.912Z,14.38
2018-05-18T05:58:51.329Z,14.40
2018-05-18T06:01:18.739Z,14.41
2018-05-18T06:03:46.156Z,14.45
2018-05-18T06:06:13.573Z,14.46
2018-05-18T06:08:40.978Z,14.52
2018-05-18T06:11:08.395Z,14.58
2018-05-18T06:13:35.817Z,14.53
2018-05-18T06:16:03.233Z,14.58
2018-05-18T06:18:30.651Z,14.57
2018-05-18T06:20:58.076Z,14.58
2018-05-18T06:23:25.496Z,14.58
2018-05-18T06:25:52.914Z,14.58
2018-05-18T06:28:20.340Z,14.62
2018-05-18T06:30:47.748Z,14.66
2018-05-18T06:33:15.154Z,14.64
2018-05-18T06:35:42.608Z,14.67
2018-05-18T06:38:10.021Z,14.67
2018-05-18T06:40:37.440Z,14.64
2018-05-18T06:43:04.853Z,14.64
2018-05-18T06:45:32.272Z,14.57
2018-05-18T06:47:59.691Z,14.53
2018-05-18T06:50:27.118Z,14.50
2018-05-18T06:52:54.528Z,14.54
2018-05-18T06:55:21.953Z,14.59
2018-05-18T06:57:49.352Z,14.58
2018-05-18T07:00:16.779Z,14.55
2018-05-18T07:02:44.194Z,14.57
2018-05-18T07:05:11.600Z,14.51
2018-05-18T07:07:39.012Z,14.44
2018-05-18T07:10:06.441Z,14.34
2018-05-18T07:12:33.848Z,14.34
2018-05-18T07:15:01.264Z,14.38
2018-05-18T07:17:28.681Z,14.40
2018-05-18T07:19:56.117Z,14.32
2018-05-18T07:22:23.527Z,14.27
2018-05-18T07:24:50.946Z,14.30
2018-05-18T07:27:18.360Z,14.31
2018-05-18T07:29:45.798Z,14.28
2018-05-18T07:32:13.204Z,14.22
2018-05-18T07:34:40.614Z,14.23
2018-05-18T07:37:08.044Z,14.28
2018-05-18T07:39:35.461Z,14.29
2018-05-18T07:42:02.880Z,14.26
2018-05-18T07:44:30.301Z,14.23
2018-05-18T07:46:57.707Z,14.28
2018-05-18T07:49:25.150Z,14.36
2018-05-18T07:51:52.541Z,14.42
2018-05-18T07:54:19.956Z,14.43
2018-05-18T07:56:47.369Z,14.43
2018-05-18T07:59:14.780Z,14.46
2018-05-18T08:01:42.207Z,14.41
2018-05-18T08:04:09.616Z,14.32
2018-05-18T08:06:37.029Z,14.29
2018-05-18T08:09:04.449Z,14.32
2018-05-18T08:11:31.866Z,14.34
2018-05-18T08:13:59.278Z,14.38
2018-05-18T08:16:26.705Z,14.34
2018-05-18T08:18:54.117Z,14.42
2018-05-18T08:21:21.546Z,14.46
2018-05-18T08:23:48.952Z,14.46
2018-05-18T08:26:16.391Z,14.48
2018-05-18T08:28:55.373Z,14.52
2018-05-18T08:31:22.787Z,14.58
2018-05-18T08:33:50.197Z,14.61
2018-05-18T08:36:17.616Z,14.69
2018-05-18T08:38:45.032Z,14.77
2018-05-18T08:41:12.450Z,14.76
2018-05-18T08:43:39.868Z,14.78
2018-05-18T08:46:07.285Z,14.74
2018-05-18T08:48:34.699Z,14.79
2018-05-18T08:51:02.117Z,14.85
2018-05-18T08:53:29.533Z,14.81
2018-05-18T08:55:56.962Z,14.84
2018-05-18T08:58:24.369Z,14.93
2018-05-18T09:00:51.793Z,14.98
2018-05-18T09:03:19.207Z,14.98
2018-05-18T09:05:46.632Z,15.02
2018-05-18T09:08:14.052Z,15.07
2018-05-18T09:10:41.474Z,15.16
2018-05-18T09:13:08.887Z,15.27
2018-05-18T09:15:36.308Z,15.45
2018-05-18T09:18:03.723Z,15.54
2018-05-18T09:20:31.137Z,15.58
2018-05-18T09:22:58.559Z,15.54
2018-05-18T09:25:25.976Z,15.57
2018-05-18T09:27:53.391Z,15.50
2018-05-18T09:30:20.810Z,15.50
2018-05-18T09:32:48.224Z,15.58
2018-05-18T09:35:15.638Z,15.65
2018-05-18T09:37:43.058Z,15.67
2018-05-18T09:40:10.491Z,15.63
2018-05-18T09:42:37.909Z,15.60
2018-05-18T09:45:05.382Z,15.63
2018-05-18T09:47:32.740Z,15.73
2018-05-18T09:50:00.161Z,15.72
2018-05-18T09:52:27.583Z,15.73
2018-05-18T09:54:55.111Z,15.70
2018-05-18T09:57:22.420Z,15.71
2018-05-18T09:59:49.829Z,15.69
2018-05-18T10:02:17.255Z,15.78
2018-05-18T10:04:44.653Z,15.73
2018-05-18T10:07:12.068Z,15.76
2018-05-18T10:09:39.482Z,15.79
2018-05-18T10:12:06.896Z,15.88
2018-05-18T10:14:34.330Z,15.90
2018-05-18T10:17:01.745Z,15.91
2018-05-18T10:19:29.156Z,15.92
2018-05-18T10:21:56.571Z,16.01
2018-05-18T10:24:23.980Z,16.01
2018-05-18T10:26:51.392Z,16.05
2018-05-18T10:29:18.818Z,16.19
2018-05-18T10:31:46.285Z,16.29
2018-05-18T10:34:13.697Z,16.29
2018-05-18T10:36:41.121Z,16.36
2018-05-18T10:39:08.526Z,16.45
2018-05-18T10:41:35.948Z,16.48
2018-05-18T10:44:03.362Z,16.49
2018-05-18T10:46:30.781Z,16.36
2018-05-18T10:48:58.194Z,16.26
2018-05-18T10:51:25.625Z,16.19
2018-05-18T10:53:53.039Z,16.16
2018-05-18T10:56:20.445Z,16.11
2018-05-18T10:58:47.868Z,16.10
2018-05-18T11:01:15.289Z,16.15
2018-05-18T11:03:42.700Z,16.13
2018-05-18T11:06:10.107Z,16.17
2018-05-18T11:08:37.529Z,16.20
2018-05-18T11:11:04.947Z,16.30
2018-05-18T11:13:32.372Z,16.24
2018-05-18T11:15:59.777Z,16.11
2018-05-18T11:18:27.205Z,16.07
2018-05-18T11:20:54.622Z,16.18
2018-05-18T11:23:22.037Z,16.74
2018-05-18T11:25:49.452Z,17.36
2018-05-18T11:28:16.885Z,17.85
2018-05-18T11:30:44.311Z,18.14
2018-05-18T11:33:11.795Z,18.37
2018-05-18T11:35:39.246Z,18.59
2018-05-18T11:38:06.671Z,18.69
2018-05-18T11:40:34.076Z,18.92
2018-05-18T11:43:01.506Z,18.60
2018-05-18T11:45:28.912Z,18.10
2018-05-18T11:47:57.320Z,17.56
2018-05-18T11:50:24.728Z,17.22
2018-05-18T11:52:52.152Z,17.02
2018-05-18T11:55:19.589Z,16.85
2018-05-18T11:57:46.991Z,16.85
2018-05-18T12:00:14.410Z,16.80
2018-05-18T12:02:41.815Z,16.70
2018-05-18T12:05:09.231Z,16.64
2018-05-18T12:07:36.643Z,16.58
2018-05-18T12:10:04.055Z,16.56
2018-05-18T12:12:31.483Z,16.48
2018-05-18T12:14:58.892Z,16.55
2018-05-18T12:17:26.316Z,16.72
2018-05-18T12:19:53.733Z,16.79
2018-05-18T12:22:21.157Z,16.86
2018-05-18T12:24:48.583Z,16.89
2018-05-18T12:27:16.020Z,16.97
2018-05-18T12:29:43.437Z,16.94
2018-05-18T12:32:10.860Z,16.89
2018-05-18T12:34:38.289Z,16.80
2018-05-18T12:37:05.700Z,16.71
2018-05-18T12:39:33.113Z,16.62
2018-05-18T12:42:00.531Z,16.55
2018-05-18T12:44:27.965Z,16.58
2018-05-18T12:46:55.380Z,16.70
2018-05-18T12:49:22.804Z,16.79
2018-05-18T12:51:50.223Z,16.80
2018-05-18T12:54:17.645Z,16.81
2018-05-18T12:56:45.063Z,16.82
2018-05-18T12:59:12.485Z,16.79
2018-05-18T13:01:39.897Z,16.77
2018-05-18T13:04:07.316Z,16.72
2018-05-18T13:06:34.724Z,16.71
2018-05-18T13:09:02.193Z,16.77
2018-05-18T13:11:29.653Z,16.73
2018-05-18T13:13:57.071Z,16.63
2018-05-18T13:16:24.483Z,16.62
2018-05-18T13:18:51.912Z,16.59
2018-05-18T13:21:19.328Z,16.69
2018-05-18T13:23:46.744Z,16.81
2018-05-18T13:26:14.153Z,16.89
2018-05-18T13:28:41.626Z,16.94
2018-05-18T13:31:09.034Z,16.93
2018-05-18T13:33:36.459Z,16.85
2018-05-18T13:36:03.867Z,16.83
2018-05-18T13:38:31.374Z,16.87
2018-05-18T13:40:58.710Z,16.90
2018-05-18T13:43:26.119Z,16.84
2018-05-18T13:45:53.536Z,16.76
2018-05-18T13:48:20.956Z,16.51
2018-05-18T13:50:48.369Z,16.32
2018-05-18T13:53:15.781Z,16.19
2018-05-18T13:55:43.205Z,16.18
2018-05-18T13:58:10.612Z,16.33
2018-05-18T14:00:38.033Z,16.47
2018-05-18T14:03:05.442Z,16.48
2018-05-18T14:05:32.873Z,16.50
2018-05-18T14:08:00.284Z,16.49
2018-05-18T14:10:27.718Z,16.49
2018-05-18T14:12:55.129Z,16.50
2018-05-18T14:15:22.548Z,16.51
2018-05-18T14:17:56.979Z,16.55
2018-05-18T14:20:25.521Z,16.56
2018-05-18T14:22:52.928Z,16.52
2018-05-18T14:25:20.349Z,16.56
2018-05-18T14:27:47.785Z,16.50
2018-05-18T14:30:15.204Z,16.51
2018-05-18T14:32:42.609Z,16.57
2018-05-18T14:35:10.049Z,16.56
2018-05-18T14:37:37.453Z,16.50
2018-05-18T14:40:04.880Z,16.40
2018-05-18T14:42:32.283Z,16.26
2018-05-18T14:44:59.716Z,16.24
2018-05-18T14:47:27.133Z,16.22
2018-05-18T14:49:54.553Z,16.26
2018-05-18T14:52:21.989Z,16.26
2018-05-18T14:54:49.404Z,16.33
2018-05-18T14:57:16.827Z,16.44
2018-05-18T14:59:44.298Z,16.50
2018-05-18T15:02:11.657Z,16.51
2018-05-18T15:04:39.081Z,16.54
2018-05-18T15:07:11.385Z,16.53
2018-05-18T15:09:42.839Z,16.56
2018-05-18T15:12:14.766Z,16.55
2018-05-18T15:14:45.474Z,16.61
2018-05-18T15:17:12.879Z,16.60
2018-05-18T15:19:40.307Z,16.53
2018-05-18T15:22:07.715Z,16.51
2018-05-18T15:24:35.135Z,16.50
2018-05-18T15:27:02.549Z,16.49
2018-05-18T15:29:29.982Z,16.51
2018-05-18T15:31:57.395Z,16.54
2018-05-18T15:34:24.811Z,16.54
2018-05-18T15:36:52.226Z,16.47
2018-05-18T15:39:19.639Z,16.44
2018-05-18T15:41:52.184Z,16.48
2018-05-18T15:44:35.255Z,16.51
2018-05-18T15:47:06.781Z,16.50
2018-05-18T15:49:40.231Z,16.40
2018-05-18T15:52:12.745Z,16.36
2018-05-18T15:54:43.193Z,16.35
2018-05-18T15:57:13.851Z,16.31
2018-05-18T15:59:45.861Z,16.20
2018-05-18T16:02:23.645Z,16.16
2018-05-18T16:04:58.033Z,16.17
2018-05-18T16:07:28.827Z,16.15
2018-05-18T16:09:56.245Z,16.11
2018-05-18T16:12:23.648Z,16.13
2018-05-18T16:14:51.135Z,16.16
2018-05-18T16:17:18.528Z,16.19
2018-05-18T16:19:45.970Z,16.21
2018-05-18T16:22:13.400Z,16.14
2018-05-18T16:24:40.835Z,16.12
2018-05-18T16:27:08.272Z,16.12
2018-05-18T16:29:35.673Z,16.14
2018-05-18T16:32:03.099Z,16.14
2018-05-18T16:34:30.508Z,16.09
2018-05-18T16:36:57.924Z,16.04
2018-05-18T16:39:25.333Z,16.01
2018-05-18T16:41:52.756Z,16.04
2018-05-18T16:44:20.176Z,16.10
2018-05-18T16:46:47.601Z,16.14
2018-05-18T16:49:15.017Z,16.15
2018-05-18T16:51:42.450Z,16.12
2018-05-18T16:54:09.868Z,16.11
2018-05-18T16:56:37.283Z,16.04
2018-05-18T16:59:04.695Z,16.06
2018-05-18T17:01:32.111Z,16.08
2018-05-18T17:03:59.524Z,16.03
2018-05-18T17:06:27.078Z,15.89
2018-05-18T17:08:54.472Z,15.81
2018-05-18T17:11:21.890Z,15.81
2018-05-18T17:13:49.303Z,15.89
2018-05-18T17:16:16.723Z,15.98
2018-05-18T17:18:44.121Z,16.01
2018-05-18T17:21:11.551Z,16.05
2018-05-18T17:23:38.955Z,16.03
2018-05-18T17:26:06.372Z,16.07
2018-05-18T17:28:33.793Z,16.06
2018-05-18T17:31:01.208Z,15.99
2018-05-18T17:33:28.612Z,16.01
2018-05-18T17:35:56.032Z,15.98
2018-05-18T17:38:23.445Z,15.87
2018-05-18T17:40:50.901Z,15.91
2018-05-18T17:43:18.309Z,15.93
2018-05-18T17:45:45.738Z,15.97
2018-05-18T17:48:13.140Z,15.98
2018-05-18T17:50:40.561Z,16.01
2018-05-18T17:53:08.024Z,16.03
2018-05-18T17:55:48.013Z,16.08
2018-05-18T17:58:15.463Z,16.06
2018-05-18T18:00:42.880Z,16.09
2018-05-18T18:03:10.336Z,16.12
2018-05-18T18:05:37.752Z,16.13
2018-05-18T18:08:05.165Z,16.12
2018-05-18T18:10:32.584Z,15.91
2018-05-18T18:13:00.002Z,15.86
2018-05-18T18:15:27.409Z,15.87
2018-05-18T18:17:55.640Z,15.86
2018-05-18T18:20:23.045Z,15.87
2018-05-18T18:22:50.468Z,15.88
2018-05-18T18:25:17.876Z,15.78
2018-05-18T18:27:45.297Z,15.79
2018-05-18T18:30:12.701Z,15.76
2018-05-18T18:32:44.377Z,15.78
2018-05-18T18:35:14.878Z,15.81
2018-05-18T18:37:42.336Z,15.84
2018-05-18T18:40:09.744Z,15.87
2018-05-18T18:42:37.160Z,15.87
2018-05-18T18:45:04.566Z,15.86
2018-05-18T18:47:31.985Z,15.81
2018-05-18T18:49:59.388Z,15.78
2018-05-18T18:52:26.805Z,15.79
2018-05-18T18:54:54.218Z,15.80
2018-05-18T18:57:21.637Z,15.82
2018-05-18T18:59:49.049Z,15.81
2018-05-18T19:02:16.464Z,15.77
2018-05-18T19:04:43.889Z,15.68
2018-05-18T19:07:11.303Z,15.71
2018-05-18T19:09:38.708Z,15.71
2018-05-18T19:12:06.138Z,15.71
2018-05-18T19:14:38.330Z,15.71
2018-05-18T19:17:08.444Z,15.72
2018-05-18T19:19:39.654Z,15.73
2018-05-18T19:22:10.439Z,15.75
2018-05-18T19:24:42.634Z,15.75
2018-05-18T19:27:19.686Z,15.74
2018-05-18T19:29:51.169Z,15.74
2018-05-18T19:32:21.632Z,15.73
2018-05-18T19:34:51.374Z,15.73
2018-05-18T19:37:22.209Z,15.71
2018-05-18T19:39:50.425Z,15.69
2018-05-18T19:42:19.919Z,15.69
2018-05-18T19:44:48.675Z,15.69
2018-05-18T19:47:19.236Z,15.69
2018-05-18T19:49:54.322Z,15.69
2018-05-18T19:52:23.821Z,15.70
2018-05-18T19:54:55.086Z,15.70
2018-05-18T19:57:25.682Z,15.68
2018-05-18T19:59:55.715Z,15.68
2018-05-18T20:02:26.198Z,15.67
2018-05-18T20:04:57.497Z,15.65
2018-05-18T20:07:29.571Z,15.61
2018-05-18T20:10:00.444Z,15.59
2018-05-18T20:12:32.412Z,15.56
2018-05-18T20:15:05.852Z,15.55
2018-05-18T20:17:37.237Z,15.52
2018-05-18T20:20:06.334Z,15.51
2018-05-18T20:22:34.341Z,15.52
2018-05-18T20:25:03.776Z,15.51
2018-05-18T20:27:31.205Z,15.49
2018-05-18T20:29:58.612Z,15.48
2018-05-18T20:32:26.024Z,15.47
2018-05-18T20:34:53.432Z,15.46
2018-05-18T20:37:20.848Z,15.45
2018-05-18T20:39:48.267Z,15.41
2018-05-18T20:42:15.684Z,15.34
2018-05-18T20:44:43.108Z,15.31
2018-05-18T20:47:10.533Z,15.25
2018-05-18T20:49:37.948Z,15.20
2018-05-18T20:52:05.369Z,15.17
2018-05-18T20:54:32.772Z,15.14
2018-05-18T20:57:00.181Z,15.15
2018-05-18T20:59:27.608Z,15.12
2018-05-18T21:01:55.016Z,15.09
2018-05-18T21:04:22.434Z,15.09
2018-05-18T21:06:49.845Z,15.11
2018-05-18T21:09:17.263Z,15.09
2018-05-18T21:11:44.678Z,15.08
2018-05-18T21:14:12.096Z,15.11
2018-05-18T21:16:39.513Z,15.12
2018-05-18T21:19:06.930Z,15.13
2018-05-18T21:21:34.342Z,15.12
2018-05-18T21:24:01.760Z,15.12
2018-05-18T21:26:29.169Z,15.12
2018-05-18T21:28:56.588Z,15.11
2018-05-18T21:31:24.008Z,15.08
2018-05-18T21:33:51.420Z,15.07
2018-05-18T21:36:18.828Z,15.02
2018-05-18T21:38:46.259Z,15.02
2018-05-18T21:41:13.661Z,15.00
2018-05-18T21:43:41.087Z,15.00
2018-05-18T21:46:08.497Z,15.00
2018-05-18T21:48:35.917Z,15.00
2018-05-18T21:51:03.319Z,15.00
2018-05-18T21:53:30.733Z,14.99
2018-05-18T21:55:58.139Z,14.96
2018-05-18T21:58:25.611Z,14.95
2018-05-18T22:00:52.972Z,14.95
2018-05-18T22:03:20.393Z,14.95
2018-05-18T22:05:47.800Z,14.95
2018-05-18T22:08:15.226Z,14.94
2018-05-18T22:10:42.640Z,14.93
2018-05-18T22:13:10.062Z,14.92
2018-05-18T22:15:37.477Z,14.90
2018-05-18T22:18:04.897Z,14.91
2018-05-18T22:20:32.301Z,14.90
2018-05-18T22:22:59.729Z,14.89
2018-05-18T22:25:27.138Z,14.88
2018-05-18T22:27:54.565Z,14.88
2018-05-18T22:30:21.977Z,14.87
2018-05-18T22:32:49.384Z,14.86
2018-05-18T22:35:16.801Z,14.86
2018-05-18T22:37:44.209Z,14.86
2018-05-18T22:40:11.623Z,14.84
2018-05-18T22:42:39.035Z,14.83
2018-05-18T22:45:06.457Z,14.81
2018-05-18T22:47:33.868Z,14.79
2018-05-18T22:50:01.292Z,14.74
2018-05-18T22:52:28.705Z,14.72
2018-05-18T22:54:56.120Z,14.71
2018-05-18T22:57:23.524Z,14.72
2018-05-18T22:59:50.944Z,14.71
2018-05-18T23:02:18.360Z,14.72
2018-05-18T23:04:45.779Z,14.72
2018-05-18T23:07:13.188Z,14.71
2018-05-18T23:09:40.603Z,14.72
2018-05-18T23:12:08.021Z,14.73
2018-05-18T23:14:35.441Z,14.72
2018-05-18T23:17:02.858Z,14.67
2018-05-18T23:19:30.280Z,14.59
2018-05-18T23:21:57.696Z,14.58
2018-05-18T23:24:25.121Z,14.59
2018-05-18T23:26:52.535Z,14.61
2018-05-18T23:29:19.958Z,14.62
2018-05-18T23:31:47.426Z,14.62
2018-05-18T23:34:14.780Z,14.61
2018-05-18T23:36:42.207Z,14.60
2018-05-18T23:39:09.620Z,14.56
2018-05-18T23:41:37.032Z,14.55
2018-05-18T23:44:04.453Z,14.56
2018-05-18T23:46:31.852Z,14.57
2018-05-18T23:48:59.276Z,14.57
2018-05-18T23:51:26.705Z,14.59
2018-05-18T23:53:54.119Z,14.57
2018-05-18T23:56:21.541Z,14.51
2018-05-18T23:58:48.956Z,14.48
